Time;durP1;ratioP1;P1;durP2;ratioP2;P2;SDS_P1;SDS_P2;PMS_P1;PMS_P2;Temp;Humidity;BMP_temperature;BMP_pressure;BME280_temperature;BME280_humidity;BME280_pressure;Samples;Min_cycle;Max_cycle;Signal;HPM_P1;HPM_P2
2022/11/09 00:01:46;;;;;;;3.17;1.25;;;;;;;16.94;55.06;98833.97;5015615;28;20096;-62
2022/11/09 00:04:12;;;;;;;1.58;1.25;;;;;;;16.93;55.02;98834.94;5015305;28;20422;-62
2022/11/09 00:06:39;;;;;;;2.35;1.45;;;;;;;16.94;54.88;98831.31;5014911;28;20056;-61
2022/11/09 00:09:06;;;;;;;6.10;1.65;;;;;;;16.96;54.92;98831.97;5015429;28;20048;-62
2022/11/09 00:11:37;;;;;;;2.47;1.33;;;;;;;16.98;54.81;98839.81;5015115;28;20605;-62
2022/11/09 00:14:04;;;;;;;2.05;1.20;;;;;;;16.97;54.92;98828.31;5015151;28;20148;-63
2022/11/09 00:16:30;;;;;;;3.72;1.70;;;;;;;16.99;54.93;98834.34;5014985;28;20330;-62
2022/11/09 00:18:57;;;;;;;2.58;1.40;;;;;;;16.98;54.97;98832.69;5015032;28;20189;-62
2022/11/09 00:21:25;;;;;;;2.22;1.20;;;;;;;16.99;54.83;98828.19;5014844;28;20569;-61
2022/11/09 00:23:52;;;;;;;5.00;1.45;;;;;;;17.02;55.13;98827.88;5015104;28;20477;-62
2022/11/09 00:26:20;;;;;;;2.53;1.35;;;;;;;17.01;55.12;98821.72;5014876;28;20058;-62
2022/11/09 00:28:47;;;;;;;3.58;1.40;;;;;;;17.03;55.19;98825.06;5014684;28;20048;-62
2022/11/09 00:31:16;;;;;;;5.20;1.88;;;;;;;17.03;55.00;98838.38;5014537;28;20482;-62
2022/11/09 00:33:48;;;;;;;2.97;1.27;;;;;;;17.06;55.07;98821.31;5014632;28;20053;-62
2022/11/09 00:36:15;;;;;;;3.03;1.35;;;;;;;17.08;54.79;98831.78;5014423;28;20571;-62
2022/11/09 00:38:42;;;;;;;2.88;1.60;;;;;;;17.10;54.96;98828.00;4997160;28;20054;-62
2022/11/09 00:41:10;;;;;;;3.75;1.55;;;;;;;17.09;55.03;98828.97;4997086;28;20402;-62
2022/11/09 00:43:37;;;;;;;2.35;1.23;;;;;;;17.09;55.08;98823.66;5014857;28;20085;-62
2022/11/09 00:46:04;;;;;;;4.07;1.30;;;;;;;17.09;54.85;98818.34;5014187;28;20048;-62
2022/11/09 00:48:31;;;;;;;3.92;1.70;;;;;;;17.11;54.82;98820.81;5014123;28;20054;-62
2022/11/09 00:50:57;;;;;;;2.78;1.45;;;;;;;17.10;54.90;98829.81;5014491;28;20441;-62
2022/11/09 00:53:25;;;;;;;2.13;1.30;;;;;;;17.10;54.92;98828.00;5014479;28;20050;-62
2022/11/09 00:56:03;;;;;;;4.00;1.55;;;;;;;17.08;55.15;98823.81;4996686;28;20053;-62
2022/11/09 00:58:32;;;;;;;3.17;1.38;;;;;;;17.11;55.04;98815.50;5014131;28;20097;-62
2022/11/09 01:01:15;;;;;;;3.38;1.45;;;;;;;17.07;55.17;98815.00;5014548;28;20061;-62
2022/11/09 01:03:44;;;;;;;2.45;1.40;;;;;;;17.10;54.98;98830.66;5014247;28;20050;-62
2022/11/09 01:06:17;;;;;;;4.60;1.50;;;;;;;17.05;55.11;98839.06;5014111;28;20670;-62
2022/11/09 01:08:44;;;;;;;;;;;;;;;17.05;55.02;98828.44;5014345;28;20513;-62
2022/11/09 01:11:11;;;;;;;2.78;1.40;;;;;;;17.10;54.62;98832.47;5013660;28;19921;-61
2022/11/09 01:13:39;;;;;;;2.30;1.42;;;;;;;17.06;54.73;98827.47;5014073;28;20145;-62
2022/11/09 01:16:09;;;;;;;2.88;1.25;;;;;;;17.04;54.99;98824.09;5013528;28;20056;-61
2022/11/09 01:18:36;;;;;;;2.70;1.23;;;;;;;17.04;54.94;98820.56;5013815;28;20438;-62
2022/11/09 01:21:08;;;;;;;5.97;1.67;;;;;;;17.01;55.24;98828.88;5013776;28;20140;-62
2022/11/09 01:23:36;;;;;;;3.30;1.40;;;;;;;17.02;55.00;98822.56;5013964;28;20050;-62
2022/11/09 01:26:06;;;;;;;4.43;1.60;;;;;;;16.98;55.23;98819.38;5013604;28;20056;-62
2022/11/09 01:28:34;;;;;;;2.10;1.23;;;;;;;16.99;55.07;98814.88;5013757;28;20060;-62
2022/11/09 01:31:03;;;;;;;3.13;1.10;;;;;;;16.98;55.02;98826.50;5013757;28;20056;-62
2022/11/09 01:33:30;;;;;;;2.38;1.30;;;;;;;16.98;55.29;98829.16;5013857;28;20054;-61
2022/11/09 01:36:02;;;;;;;4.07;1.35;;;;;;;16.97;55.47;98828.31;5013319;28;20132;-62
2022/11/09 01:38:29;;;;;;;3.03;1.45;;;;;;;16.98;55.14;98824.69;5013308;28;20041;-63
2022/11/09 01:40:55;;;;;;;2.65;1.55;;;;;;;16.99;55.29;98829.03;5013185;28;20490;-61
2022/11/09 01:43:23;;;;;;;1.65;1.10;;;;;;;16.98;55.22;98838.00;5013355;28;20046;-62
2022/11/09 01:46:08;;;;;;;2.38;1.42;;;;;;;16.96;55.56;98826.66;5013184;28;20129;-61
2022/11/09 01:48:44;;;;;;;3.42;1.40;;;;;;;16.97;55.50;98832.81;5013154;28;20359;-61
2022/11/09 01:51:34;;;;;;;2.38;1.42;;;;;;;16.98;55.43;98835.34;5013115;28;20486;-60
2022/11/09 01:54:07;;;;;;;1.88;1.17;;;;;;;17.00;55.18;98824.53;5013326;28;20498;-60
2022/11/09 01:56:33;;;;;;;1.98;1.25;;;;;;;17.01;55.15;98828.88;5012855;28;20056;-63
2022/11/09 01:59:08;;;;;;;3.13;1.48;;;;;;;16.98;55.47;98835.34;5013723;28;20046;-62
2022/11/09 02:01:36;;;;;;;2.10;1.02;;;;;;;17.00;55.09;98827.19;5012878;28;20136;-61
2022/11/09 02:04:26;;;;;;;2.72;1.48;;;;;;;16.95;55.49;98819.69;5013118;28;20068;-62
2022/11/09 02:06:56;;;;;;;4.15;1.40;;;;;;;16.97;55.29;98825.66;5012563;28;20145;-62
2022/11/09 02:09:30;;;;;;;2.80;1.25;;;;;;;16.95;55.27;98819.69;5012997;28;20123;-62
2022/11/09 02:11:56;;;;;;;1.95;1.45;;;;;;;16.93;55.04;98813.66;5012776;28;20414;-63
2022/11/09 02:14:26;;;;;;;1.77;1.23;;;;;;;16.90;55.22;98819.31;5012896;28;20056;-62
2022/11/09 02:16:53;;;;;;;2.63;1.20;;;;;;;16.88;55.22;98819.44;5012393;28;20054;-62
2022/11/09 02:19:20;;;;;;;2.50;1.13;;;;;;;16.86;55.36;98818.75;5012786;28;20153;-61
2022/11/09 02:21:46;;;;;;;2.70;1.30;;;;;;;16.84;55.47;98819.91;5012739;28;20473;-61
2022/11/09 02:24:13;;;;;;;2.35;1.23;;;;;;;16.83;55.36;98819.06;5012137;28;20081;-62
2022/11/09 02:26:48;;;;;;;2.45;1.20;;;;;;;16.76;55.68;98821.50;5012283;28;20495;-61
2022/11/09 02:29:19;;;;;;;2.25;1.20;;;;;;;16.75;55.86;98811.03;5012463;28;20774;-61
2022/11/09 02:31:51;;;;;;;2.53;1.17;;;;;;;16.74;55.56;98814.66;5012484;28;20049;-62
2022/11/09 02:34:20;;;;;;;3.75;1.15;;;;;;;16.73;55.59;98813.81;5012596;28;20089;-61
2022/11/09 02:36:47;;;;;;;2.95;1.17;;;;;;;16.71;55.65;98815.78;5012032;28;20049;-62
2022/11/09 02:39:16;;;;;;;1.75;1.00;;;;;;;16.70;55.79;98800.03;5012290;28;20054;-61
2022/11/09 02:41:48;;;;;;;3.92;1.35;;;;;;;16.67;55.80;98798.47;5012412;28;20079;-62
2022/11/09 02:44:15;;;;;;;4.57;1.38;;;;;;;16.64;55.77;98799.59;5012265;28;20046;-62
2022/11/09 02:46:42;;;;;;;3.67;1.30;;;;;;;16.63;55.77;98800.59;5012055;28;20387;-62
2022/11/09 02:49:08;;;;;;;3.50;1.42;;;;;;;16.61;55.74;98807.06;5012262;28;20060;-62
2022/11/09 02:51:35;;;;;;;2.78;1.08;;;;;;;16.59;56.00;98795.75;5012205;28;20141;-61
2022/11/09 02:54:02;;;;;;;5.13;1.10;;;;;;;16.57;55.96;98795.06;5012139;28;20057;-63
2022/11/09 02:56:29;;;;;;;3.80;1.40;;;;;;;16.56;56.00;98791.56;5011755;28;20049;-62
2022/11/09 02:58:55;;;;;;;2.97;1.42;;;;;;;16.54;56.03;98797.03;5012072;28;20045;-62
2022/11/09 03:01:22;;;;;;;2.05;1.10;;;;;;;16.54;56.00;98799.69;5012009;28;20581;-62
2022/11/09 03:03:48;;;;;;;4.15;1.05;;;;;;;16.53;56.19;98798.00;5011841;28;20100;-62
2022/11/09 03:06:15;;;;;;;2.03;1.27;;;;;;;16.52;56.13;98800.84;5011739;28;20052;-62
2022/11/09 03:08:41;;;;;;;5.63;1.40;;;;;;;16.51;56.13;98799.16;5011746;28;20482;-62
2022/11/09 03:11:08;;;;;;;2.55;1.52;;;;;;;16.49;56.15;98796.63;5011761;28;20140;-61
2022/11/09 03:13:35;;;;;;;5.30;1.40;;;;;;;16.47;56.24;98797.78;5011743;28;20046;-61
2022/11/09 03:16:05;;;;;;;6.28;1.90;;;;;;;16.44;56.45;98804.22;5011713;28;20486;-61
2022/11/09 03:18:32;;;;;;;1.40;0.98;;;;;;;16.45;56.32;98805.88;5011576;28;20046;-61
2022/11/09 03:21:04;;;;;;;2.60;1.10;;;;;;;16.42;56.41;98800.88;5011689;28;20536;-61
2022/11/09 03:23:31;;;;;;;2.92;1.15;;;;;;;16.43;56.25;98810.53;5010268;28;20052;-62
2022/11/09 03:25:58;;;;;;;3.00;1.40;;;;;;;16.42;56.00;98800.88;5011633;28;20060;-61
2022/11/09 03:28:25;;;;;;;2.97;1.00;;;;;;;16.39;56.04;98802.03;5011720;28;20088;-62
2022/11/09 03:30:51;;;;;;;4.35;1.30;;;;;;;16.37;56.23;98808.47;5011599;28;20140;-61
2022/11/09 03:33:18;;;;;;;2.40;1.10;;;;;;;16.35;56.14;98802.47;5011618;28;20521;-61
2022/11/09 03:35:45;;;;;;;2.45;1.20;;;;;;;16.32;56.41;98808.91;5010417;28;20049;-61
2022/11/09 03:38:12;;;;;;;3.90;1.48;;;;;;;16.31;56.31;98806.41;5011359;28;20052;-61
2022/11/09 03:40:39;;;;;;;3.22;1.10;;;;;;;16.28;56.38;98805.72;4993820;28;20050;-61
2022/11/09 03:43:05;;;;;;;2.33;1.10;;;;;;;16.27;56.59;98822.63;5010078;28;20060;-61
2022/11/09 03:45:32;;;;;;;2.38;1.02;;;;;;;16.28;56.61;98832.28;5011206;28;20467;-61
2022/11/09 03:47:59;;;;;;;2.33;1.00;;;;;;;16.29;56.70;98838.41;5011344;28;20061;-61
2022/11/09 03:50:28;;;;;;;3.13;1.55;;;;;;;16.28;56.65;98845.56;5011533;28;20080;-62
2022/11/09 03:52:55;;;;;;;3.67;1.63;;;;;;;16.30;56.55;98839.25;4994012;28;20136;-61
2022/11/09 03:55:22;;;;;;;1.88;1.10;;;;;;;16.32;56.54;98842.59;5011219;28;20469;-62
2022/11/09 03:57:49;;;;;;;2.70;1.25;;;;;;;16.33;56.51;98839.78;5010868;28;20053;-61
2022/11/09 04:00:18;;;;;;;3.20;1.40;;;;;;;16.33;56.54;98834.47;5011279;28;20057;-62
2022/11/09 04:02:44;;;;;;;2.17;1.10;;;;;;;16.34;56.20;98832.66;5011546;28;20050;-61
2022/11/09 04:05:11;;;;;;;2.60;1.20;;;;;;;16.33;56.19;98841.63;5010955;28;20497;-61
2022/11/09 04:07:38;;;;;;;2.05;1.13;;;;;;;16.31;56.21;98836.44;5011134;28;20052;-61
2022/11/09 04:10:06;;;;;;;3.03;1.10;;;;;;;16.30;56.19;98833.94;5011014;28;20133;-61
2022/11/09 04:12:32;;;;;;;1.38;1.08;;;;;;;16.27;56.25;98835.88;5011094;28;20573;-61
2022/11/09 04:14:59;;;;;;;5.05;1.50;;;;;;;16.24;56.25;98835.34;5010809;28;20064;-62
2022/11/09 04:17:25;;;;;;;1.25;0.88;;;;;;;16.23;56.41;98839.00;5010880;28;20132;-62
2022/11/09 04:19:52;;;;;;;2.38;1.20;;;;;;;16.21;56.41;98835.66;5011242;28;20140;-62
2022/11/09 04:22:18;;;;;;;3.78;1.27;;;;;;;16.20;56.46;98852.56;5010938;28;20050;-61
2022/11/09 04:24:45;;;;;;;4.47;1.35;;;;;;;16.18;56.51;98858.00;5010867;28;20042;-61
2022/11/09 04:27:11;;;;;;;2.33;1.40;;;;;;;16.16;56.46;98854.69;5010835;28;20136;-62
2022/11/09 04:29:38;;;;;;;4.00;1.23;;;;;;;16.17;56.59;98837.78;5011031;28;20394;-62
2022/11/09 04:32:04;;;;;;;2.03;1.08;;;;;;;16.17;56.50;98828.94;5011097;28;20077;-61
2022/11/09 04:34:31;;;;;;;3.15;1.15;;;;;;;16.17;56.58;98829.81;5011060;28;20402;-61
2022/11/09 04:36:58;;;;;;;3.35;1.55;;;;;;;16.15;56.42;98837.09;5010718;28;20049;-63
2022/11/09 04:39:24;;;;;;;2.70;1.27;;;;;;;16.16;56.67;98841.41;5010684;28;20129;-62
2022/11/09 04:41:51;;;;;;;6.07;1.60;;;;;;;16.16;56.29;98841.41;5036634;23;20110;-59
2022/11/09 04:44:20;;;;;;;2.90;1.42;;;;;;;16.16;56.42;98838.75;4991238;28;20154;-59
2022/11/09 04:46:46;;;;;;;4.05;1.40;;;;;;;16.15;56.38;98842.41;4993123;28;20069;-60
2022/11/09 04:49:13;;;;;;;5.18;1.92;;;;;;;16.17;56.29;98843.06;4995071;28;20495;-60
2022/11/09 04:51:39;;;;;;;5.18;1.40;;;;;;;16.17;56.22;98839.56;4995152;28;20061;-59
2022/11/09 04:54:06;;;;;;;4.15;1.33;;;;;;;16.15;56.29;98842.41;4994777;28;20051;-59
2022/11/09 04:56:32;;;;;;;3.95;1.13;;;;;;;16.15;56.26;98855.69;4995004;28;20137;-61
2022/11/09 04:58:59;;;;;;;3.65;1.33;;;;;;;16.15;56.07;98853.03;4994468;28;20046;-60
2022/11/09 05:01:25;;;;;;;6.72;1.60;;;;;;;16.13;56.09;98857.63;4995075;28;20068;-59
2022/11/09 05:03:52;;;;;;;5.03;1.83;;;;;;;16.12;56.02;98856.78;4995024;28;20407;-58
2022/11/09 05:06:31;;;;;;;3.45;1.65;;;;;;;16.12;55.96;98848.00;4994510;28;20062;-59
2022/11/09 05:08:59;;;;;;;5.50;1.45;;;;;;;16.12;56.12;98858.63;4994704;28;20133;-60
2022/11/09 05:11:27;;;;;;;6.43;1.40;;;;;;;16.12;56.09;98863.91;4994334;28;20418;-59
2022/11/09 05:13:53;;;;;;;4.15;1.50;;;;;;;16.13;56.04;98854.97;4994574;28;20053;-59
2022/11/09 05:16:21;;;;;;;6.47;1.55;;;;;;;16.13;55.92;98862.94;4994516;28;20117;-60
2022/11/09 05:18:49;;;;;;;6.82;1.60;;;;;;;16.14;55.77;98862.78;4994032;28;20410;-59
2022/11/09 05:21:16;;;;;;;8.48;1.92;;;;;;;16.13;55.81;98854.97;4994478;28;20046;-58
2022/11/09 05:23:58;;;;;;;5.32;1.48;;;;;;;16.14;55.71;98873.41;4994209;28;20055;-59
2022/11/09 05:26:29;;;;;;;5.38;1.92;;;;;;;16.14;55.82;98875.22;4994468;28;20066;-59
2022/11/09 05:28:58;;;;;;;7.38;2.00;;;;;;;16.14;55.83;98872.56;4994319;28;20174;-59
2022/11/09 05:31:26;;;;;;;8.35;1.80;;;;;;;16.13;55.86;98877.06;4994174;28;20085;-62
2022/11/09 05:33:53;;;;;;;6.70;1.80;;;;;;;16.13;55.63;98877.06;4994026;28;20050;-58
2022/11/09 05:36:21;;;;;;;7.43;2.03;;;;;;;16.13;55.70;98878.88;4994302;28;20406;-62
2022/11/09 05:38:48;;;;;;;5.30;1.60;;;;;;;16.13;55.79;98876.22;4992673;28;20141;-59
2022/11/09 05:41:15;;;;;;;9.35;1.88;;;;;;;16.13;55.77;98881.53;4994069;28;20145;-58
2022/11/09 05:43:46;;;;;;;5.85;1.83;;;;;;;16.13;55.93;98881.53;4994197;28;20054;-59
2022/11/09 05:46:14;;;;;;;3.55;1.30;;;;;;;16.13;55.84;98884.16;4993803;28;20050;-59
2022/11/09 05:48:42;;;;;;;9.95;1.83;;;;;;;16.11;55.88;98879.00;4993736;28;20051;-58
2022/11/09 05:51:10;;;;;;;6.22;1.58;;;;;;;16.11;55.83;98883.50;4993410;28;20380;-59
2022/11/09 05:53:38;;;;;;;6.88;1.80;;;;;;;16.10;55.94;98880.00;4993865;28;20050;-59
2022/11/09 05:56:13;;;;;;;5.15;1.95;;;;;;;16.09;55.93;98880.97;4993692;28;20092;-59
2022/11/09 05:58:40;;;;;;;4.28;1.40;;;;;;;16.08;55.90;98889.94;4992425;28;20054;-59
2022/11/09 06:01:12;;;;;;;5.72;1.73;;;;;;;16.04;56.15;98890.34;4993642;28;20483;-59
2022/11/09 06:03:40;;;;;;;5.38;1.95;;;;;;;16.06;56.03;98885.72;4993692;28;20046;-59
2022/11/09 06:06:09;;;;;;;4.70;1.15;;;;;;;16.08;55.99;98889.09;4993438;28;20050;-59
2022/11/09 06:08:36;;;;;;;7.80;1.90;;;;;;;16.06;56.12;98886.56;4993358;28;20566;-59
2022/11/09 06:11:05;;;;;;;5.20;1.90;;;;;;;16.07;56.26;98882.13;4993280;28;20070;-61
2022/11/09 06:13:32;;;;;;;4.65;1.50;;;;;;;16.08;56.21;98887.28;4993423;28;20054;-59
2022/11/09 06:16:01;;;;;;;6.22;1.58;;;;;;;16.08;56.20;98889.09;4993478;28;20483;-59
2022/11/09 06:18:29;;;;;;;5.68;1.92;;;;;;;16.08;56.25;98889.94;4993226;28;20060;-60
2022/11/09 06:21:01;;;;;;;7.72;2.00;;;;;;;16.08;56.48;98894.41;4993467;28;20046;-59
2022/11/09 06:23:29;;;;;;;10.63;2.10;;;;;;;16.10;56.16;98892.41;4993474;28;20090;-59
2022/11/09 06:25:57;;;;;;;6.38;1.85;;;;;;;16.08;56.27;98892.59;4993127;28;20137;-60
2022/11/09 06:28:24;;;;;;;4.70;1.90;;;;;;;16.10;56.18;98897.72;4992900;28;20282;-59
2022/11/09 06:30:51;;;;;;;6.05;1.67;;;;;;;16.08;56.22;98895.25;4992715;28;20050;-60
2022/11/09 06:33:18;;;;;;;6.00;1.77;;;;;;;16.06;55.97;98899.84;4993031;28;20042;-59
2022/11/09 06:35:45;;;;;;;6.00;1.70;;;;;;;16.05;55.96;98903.50;4992850;28;20050;-59
2022/11/09 06:38:11;;;;;;;5.30;1.75;;;;;;;16.01;56.07;98910.88;4992615;28;20047;-58
2022/11/09 06:40:38;;;;;;;4.88;1.70;;;;;;;15.97;56.06;98913.97;4992721;28;20077;-60
2022/11/09 06:43:05;;;;;;;10.15;2.00;;;;;;;15.94;56.07;98916.88;4992468;28;20056;-59
2022/11/09 06:45:32;;;;;;;6.22;2.00;;;;;;;15.90;56.06;98911.03;4992920;28;20058;-59
2022/11/09 06:48:01;;;;;;;8.52;1.88;;;;;;;15.86;56.18;98918.44;4992922;28;20046;-59
2022/11/09 06:50:32;;;;;;;7.20;1.88;;;;;;;15.81;56.34;98923.31;4992813;28;20052;-58
2022/11/09 06:53:00;;;;;;;5.93;1.95;;;;;;;15.78;56.35;98920.97;4992639;28;20057;-59
2022/11/09 06:55:28;;;;;;;9.38;1.90;;;;;;;15.74;56.32;98915.09;4992425;28;20058;-60
2022/11/09 06:57:55;;;;;;;10.45;1.52;;;;;;;15.71;56.44;98923.38;4991111;28;20059;-59
2022/11/09 07:00:22;;;;;;;7.45;1.55;;;;;;;15.68;56.41;98909.53;4992395;28;20050;-59
2022/11/09 07:02:49;;;;;;;6.50;2.13;;;;;;;15.66;56.58;98922.09;4992422;28;20073;-60
2022/11/09 07:05:16;;;;;;;7.03;1.60;;;;;;;15.65;56.65;98926.56;4992047;28;20054;-59
2022/11/09 07:07:43;;;;;;;7.32;1.40;;;;;;;15.62;56.61;98929.50;4992108;28;20053;-58
2022/11/09 07:10:10;;;;;;;5.28;1.73;;;;;;;15.61;56.70;98919.88;4992008;28;20046;-59
2022/11/09 07:12:37;;;;;;;7.05;1.40;;;;;;;15.58;56.68;98925.44;4992347;28;20054;-58
2022/11/09 07:15:04;;;;;;;8.95;1.83;;;;;;;15.57;56.74;98921.97;4992342;28;20129;-57
2022/11/09 07:17:32;;;;;;;6.30;1.60;;;;;;;15.54;56.88;98930.19;4992049;28;20047;-58
2022/11/09 07:19:59;;;;;;;8.43;1.80;;;;;;;15.53;56.79;98927.69;4992499;28;20042;-57
2022/11/09 07:22:28;;;;;;;6.38;1.42;;;;;;;15.47;57.08;98929.94;4991968;28;20057;-58
2022/11/09 07:24:55;;;;;;;8.45;1.92;;;;;;;15.47;57.08;98935.22;4991949;28;20487;-59
2022/11/09 07:27:22;;;;;;;7.05;2.28;;;;;;;15.46;57.10;98936.22;4991983;28;20058;-61
2022/11/09 07:29:53;;;;;;;9.70;2.60;;;;;;;15.44;57.04;98930.19;4992329;28;20050;-58
2022/11/09 07:32:20;;;;;;;5.70;1.65;;;;;;;15.42;57.19;98928.66;4991931;28;20054;-58
2022/11/09 07:35:06;;;;;;;7.38;1.77;;;;;;;15.40;57.30;98931.44;4991897;28;20064;-58
2022/11/09 07:37:33;;;;;;;12.90;2.10;;;;;;;15.38;57.23;98941.38;4991660;28;20054;-58
2022/11/09 07:40:00;;;;;;;6.60;1.92;;;;;;;15.36;57.31;98938.84;4992048;28;20570;-58
2022/11/09 07:42:26;;;;;;;5.28;1.48;;;;;;;15.35;57.41;98947.78;4991662;28;20096;-58
2022/11/09 07:44:53;;;;;;;7.60;2.00;;;;;;;15.35;57.52;98944.28;4991949;28;20060;-58
2022/11/09 07:47:19;;;;;;;7.63;1.70;;;;;;;15.32;57.65;98944.56;4991699;28;20043;-59
2022/11/09 07:49:46;;;;;;;7.22;1.90;;;;;;;15.31;57.55;98957.00;4991564;28;20050;-59
2022/11/09 07:52:13;;;;;;;6.40;1.83;;;;;;;15.31;57.55;98956.16;4991663;28;20046;-59
2022/11/09 07:54:40;;;;;;;8.15;1.67;;;;;;;15.30;57.64;98960.63;4991630;28;20061;-58
2022/11/09 07:57:06;;;;;;;6.30;2.20;;;;;;;15.30;57.72;98965.09;4990332;28;20042;-59
2022/11/09 07:59:33;;;;;;;4.70;1.98;;;;;;;15.29;57.72;98963.41;4991686;28;20426;-59
2022/11/09 08:02:00;;;;;;;6.20;2.25;;;;;;;15.29;57.89;98968.72;4991952;28;20050;-59
2022/11/09 08:04:26;;;;;;;4.70;2.03;;;;;;;15.27;57.92;98968.00;4991806;28;20054;-59
2022/11/09 08:06:53;;;;;;;6.25;2.22;;;;;;;15.27;57.89;98968.00;4991248;28;20061;-60
2022/11/09 08:09:20;;;;;;;7.43;2.05;;;;;;;15.27;58.11;98968.00;4991544;28;20595;-58
2022/11/09 08:11:46;;;;;;;9.50;2.20;;;;;;;15.27;57.91;98973.31;4991697;28;20076;-59
2022/11/09 08:14:13;;;;;;;6.97;1.55;;;;;;;15.27;58.18;98970.66;4991588;28;20511;-60
2022/11/09 08:16:39;;;;;;;4.85;1.75;;;;;;;15.28;58.06;98967.88;4991400;28;20065;-60
2022/11/09 08:19:08;;;;;;;5.88;1.85;;;;;;;15.31;58.29;98964.94;4991379;28;20108;-59
2022/11/09 08:21:38;;;;;;;7.90;2.03;;;;;;;15.32;58.79;98974.56;4993537;28;20526;-59
2022/11/09 08:24:04;;;;;;;7.20;1.65;;;;;;;15.38;58.62;98970.53;4995580;28;20046;-58
2022/11/09 08:26:31;;;;;;;5.10;1.92;;;;;;;15.41;58.72;98972.94;4995316;28;20050;-59
2022/11/09 08:28:58;;;;;;;10.50;1.70;;;;;;;15.47;58.46;98976.81;4995280;28;20059;-58
2022/11/09 08:31:25;;;;;;;5.75;1.67;;;;;;;15.50;58.30;98976.53;4995045;28;20510;-58
2022/11/09 08:33:51;;;;;;;5.80;1.58;;;;;;;15.54;58.20;98979.75;4995380;28;20109;-59
2022/11/09 08:36:18;;;;;;;11.63;2.05;;;;;;;15.56;58.19;98983.97;4995060;28;20074;-61
2022/11/09 08:38:45;;;;;;;10.30;2.40;;;;;;;15.57;58.16;98980.34;4994834;28;20542;-58
2022/11/09 08:41:12;;;;;;;5.32;1.70;;;;;;;15.58;58.20;98983.81;4995049;28;20050;-58
2022/11/09 08:43:40;;;;;;;7.32;2.10;;;;;;;15.61;58.44;98980.88;4994960;28;20065;-58
2022/11/09 08:46:06;;;;;;;8.70;1.90;;;;;;;15.63;58.42;98984.25;4994858;28;20137;-60
2022/11/09 08:48:33;;;;;;;10.05;2.10;;;;;;;15.68;58.39;98989.97;4995117;28;20451;-59
2022/11/09 08:51:00;;;;;;;7.00;1.88;;;;;;;15.72;58.49;98983.41;4995197;28;20399;-58
2022/11/09 08:53:28;;;;;;;5.35;1.70;;;;;;;15.76;58.66;98991.91;4994992;28;20058;-60
2022/11/09 08:55:54;;;;;;;7.28;1.85;;;;;;;15.83;58.52;98986.88;4994551;28;20557;-58
2022/11/09 08:58:21;;;;;;;5.13;1.40;;;;;;;15.88;58.67;98989.94;4994524;28;20046;-59
2022/11/09 09:00:48;;;;;;;7.72;2.05;;;;;;;15.97;58.52;98985.66;4994843;28;20050;-59
2022/11/09 09:03:15;;;;;;;9.07;1.83;;;;;;;16.04;58.54;98989.41;4994742;28;20054;-59
2022/11/09 09:05:41;;;;;;;7.72;2.03;;;;;;;16.12;58.26;98978.09;4994606;28;20076;-60
2022/11/09 09:08:10;;;;;;;9.20;1.67;;;;;;;16.20;58.00;98990.63;4995051;28;20065;-61
2022/11/09 09:10:37;;;;;;;8.88;2.15;;;;;;;16.25;57.78;98981.25;4994385;28;20054;-58
2022/11/09 09:13:03;;;;;;;7.65;1.90;;;;;;;16.30;57.72;98994.13;4994700;28;20056;-58
2022/11/09 09:15:30;;;;;;;5.35;1.70;;;;;;;16.33;57.57;98988.50;4994457;28;20058;-61
2022/11/09 09:18:04;;;;;;;7.50;1.70;;;;;;;16.35;57.17;98988.38;4994273;28;20056;-58
2022/11/09 09:20:31;;;;;;;7.75;2.22;;;;;;;16.39;57.28;98984.44;4994611;28;20065;-59
2022/11/09 09:22:59;;;;;;;8.00;1.65;;;;;;;16.43;57.24;99004.41;4994636;28;20497;-59
2022/11/09 09:25:26;;;;;;;6.63;1.48;;;;;;;16.46;57.02;99006.78;4994046;28;20058;-59
2022/11/09 09:27:53;;;;;;;8.18;1.92;;;;;;;16.49;56.97;98990.53;4994294;28;20137;-59
2022/11/09 09:30:19;;;;;;;6.38;1.70;;;;;;;16.52;56.73;98992.09;4994468;28;20054;-59
2022/11/09 09:32:46;;;;;;;7.28;2.05;;;;;;;16.55;56.61;99002.41;4994420;28;20062;-59
2022/11/09 09:35:13;;;;;;;8.50;2.08;;;;;;;16.57;56.57;99005.78;4993886;28;20054;-59
2022/11/09 09:37:39;;;;;;;8.35;1.92;;;;;;;16.59;56.64;99006.47;4993910;28;20081;-60
2022/11/09 09:40:07;;;;;;;7.47;1.90;;;;;;;16.62;56.56;99008.00;4993885;28;20050;-59
2022/11/09 09:42:42;;;;;;;5.30;1.90;;;;;;;16.63;56.62;99020.31;4994298;28;20046;-61
2022/11/09 09:45:18;;;;;;;7.22;1.70;;;;;;;16.66;56.42;99022.66;4993747;28;20487;-59
2022/11/09 09:47:53;;;;;;;8.57;2.05;;;;;;;16.67;56.03;99032.28;4993772;28;20422;-59
2022/11/09 09:50:36;;;;;;;8.25;2.05;;;;;;;16.66;55.87;99010.22;4993642;28;20089;-60
2022/11/09 09:53:09;;;;;;;;;;;;;;;16.68;55.49;99020.72;4993051;28;20446;-58
2022/11/09 09:55:56;;;;;;;6.82;1.63;;;;;;;16.70;55.73;99021.38;4993785;28;19931;-61
2022/11/09 09:58:26;;;;;;;7.47;1.65;;;;;;;16.68;55.72;99023.38;4993640;28;20046;-59
2022/11/09 10:01:04;;;;;;;7.03;1.88;;;;;;;16.67;56.19;99019.00;4993587;28;20054;-59
2022/11/09 10:03:31;;;;;;;8.10;1.67;;;;;;;16.70;56.44;99024.03;4993898;28;20073;-59
2022/11/09 10:06:12;;;;;;;6.88;1.77;;;;;;;16.73;56.16;99014.94;4993296;28;20141;-60
2022/11/09 10:09:21;;;;;;;6.85;2.10;;;;;;;16.78;55.58;99026.81;4993542;28;20132;-59
2022/11/09 10:12:20;;;;;;;8.32;1.77;;;;;;;16.87;54.78;99016.28;4993585;28;20050;-59
2022/11/09 10:15:02;;;;;;;3.55;1.10;;;;;;;16.92;54.98;99024.66;4980265;28;20143;-61
2022/11/09 10:17:35;;;;;;;5.47;1.60;;;;;;;16.97;55.08;99017.06;4993044;28;20058;-60
2022/11/09 10:20:16;;;;;;;8.38;1.65;;;;;;;16.97;54.67;99014.41;4993216;28;20056;-60
2022/11/09 10:23:10;;;;;;;6.55;1.60;;;;;;;16.94;54.65;99020.88;4993377;28;20047;-59
2022/11/09 10:25:37;;;;;;;5.55;1.50;;;;;;;16.96;54.58;99031.34;4992977;28;20145;-59
2022/11/09 10:28:27;;;;;;;3.65;1.20;;;;;;;16.91;54.45;99033.63;4992831;28;20050;-59
2022/11/09 10:31:20;;;;;;;4.85;1.70;;;;;;;16.85;54.50;99008.47;4993213;28;20054;-60
2022/11/09 10:33:53;;;;;;;3.80;1.35;;;;;;;16.84;54.73;99016.56;4992904;28;20422;-59
2022/11/09 10:36:52;;;;;;;3.38;1.67;;;;;;;16.78;55.09;99021.50;4993060;28;20050;-59
2022/11/09 10:39:23;;;;;;;6.00;1.88;;;;;;;16.85;55.08;99015.63;4992987;28;20053;-60
2022/11/09 17:16:19;;;;;;;8.40;1.60;;;;;;;15.06;51.96;99264.00;4971181;28;20063;-59
2022/11/09 17:18:45;;;;;;;6.30;1.50;;;;;;;15.01;52.29;99274.16;4974647;28;20058;-56
2022/11/09 17:21:13;;;;;;;6.13;1.65;;;;;;;14.97;52.48;99273.56;4974629;28;20051;-53
2022/11/09 17:23:43;;;;;;;4.85;1.73;;;;;;;14.94;52.87;99283.56;4958060;28;20065;-56
2022/11/09 17:26:10;;;;;;;7.40;1.55;;;;;;;14.94;52.65;99296.81;4974998;28;20097;-56
2022/11/09 17:28:37;;;;;;;5.15;1.38;;;;;;;14.92;52.86;99288.16;5019511;23;20056;-62
2022/11/09 17:31:14;;;;;;;3.35;0.95;;;;;;;14.92;53.16;99301.41;5053714;28;20049;-62
2022/11/09 17:33:41;;;;;;;7.28;1.50;;;;;;;14.93;53.17;99301.31;5053862;28;20093;-62
2022/11/09 17:36:10;;;;;;;4.45;1.10;;;;;;;14.92;53.17;99299.59;5053744;28;20052;-63
2022/11/09 17:38:37;;;;;;;5.22;1.30;;;;;;;14.94;53.27;99312.72;5053323;28;20135;-62
2022/11/09 17:41:09;;;;;;;4.35;1.38;;;;;;;14.93;53.73;99313.69;5053713;28;20159;-62
2022/11/09 17:43:39;;;;;;;5.05;1.40;;;;;;;14.95;53.41;99309.13;5053573;28;20472;-62
2022/11/09 17:46:15;;;;;;;5.10;1.50;;;;;;;14.93;53.93;99314.56;5053322;28;20056;-62
2022/11/09 17:48:43;;;;;;;6.90;1.67;;;;;;;14.95;53.72;99312.59;5053535;28;20141;-63
2022/11/09 17:51:11;;;;;;;3.40;1.30;;;;;;;14.97;53.68;99315.13;5053542;28;20083;-62
2022/11/09 17:53:39;;;;;;;7.07;1.90;;;;;;;14.97;53.51;99320.44;5052107;28;20132;-63
2022/11/09 17:56:09;;;;;;;7.22;1.48;;;;;;;14.96;53.55;99316.91;5052914;28;20481;-62
2022/11/09 17:58:40;;;;;;;6.10;1.50;;;;;;;14.94;54.03;99329.47;5046944;28;20133;-62
2022/11/09 18:01:16;;;;;;;11.43;1.80;;;;;;;14.94;53.98;99337.44;5053015;28;20485;-62
2022/11/09 18:03:43;;;;;;;6.53;1.52;;;;;;;14.97;53.64;99336.31;5052579;28;20671;-62
2022/11/09 18:06:15;;;;;;;3.75;1.55;;;;;;;14.94;53.86;99337.44;5052487;28;20059;-62
2022/11/09 18:08:42;;;;;;;7.75;1.85;;;;;;;14.94;53.69;99331.28;5051654;28;20056;-64
2022/11/09 18:11:10;;;;;;;4.88;1.27;;;;;;;14.93;53.68;99338.41;5047977;28;20052;-62
2022/11/09 18:13:37;;;;;;;5.70;1.50;;;;;;;14.94;53.91;99339.22;5047074;28;20051;-62
2022/11/09 18:16:12;;;;;;;4.38;1.80;;;;;;;14.92;53.94;99344.66;5030370;28;20048;-63
2022/11/09 18:18:44;;;;;;;4.40;1.48;;;;;;;14.91;53.80;99342.97;5050514;28;20127;-62